ウルムチ の空港の天気 - METARとTAF

ウルムチ地窩堡国際空港 ( ZWWW / URC ) - 中国 新疆ウイグル自治区ウルムチ市
飛行場実況気象(Metar)
観測時間08/26 03:00 CST (08/25 19:00 UTC)
風向・風速不定 1m/s
視程10km以上
天気現象
なし
気温22℃
湿度50%
気圧1018hPa
METARZWWW 251900Z VRB01MPS CAVOK 22/11 Q1018 NOSIG
過去の天気等 Google飛行場航空写真 Wunderground天気予報

過去48時間のMETAR

飛行場予報(TAF)
発表時間: 8/25 23:02 CST (8/25 15:02 UTC)
予報対象時間: 26日2時 CST ~ 27日2時 CST
風向・風速南 4m/s
視程10km以上
なし
26日10時 CST ~ 26日11時 CST に徐々に
風向・風速北 4m/s
26日21時 CST ~ 26日22時 CST に徐々に
風向・風速南 4m/s
TAF ZWWW 251502Z 2518/2618 18004MPS CAVOK TX30/2609Z TN20/2523Z
BECMG 2602/2603 36004MPS
BECMG 2613/2614 18004MPS